Time;durP1;ratioP1;P1;durP2;ratioP2;P2;SDS_P1;SDS_P2;PMS_P1;PMS_P2;Temp;Humidity;BMP_temperature;BMP_pressure;BME280_temperature;BME280_humidity;BME280_pressure;Samples;Min_cycle;Max_cycle;Signal;HPM_P1;HPM_P2
2022/06/13 00:02:10;;;;;;;7.00;6.30;;;;;;;23.87;41.51;99975.69;117320;1187;21896;-58
2022/06/13 00:04:37;;;;;;;7.40;6.40;;;;;;;23.83;41.87;99976.48;117338;1182;21846;-53
2022/06/13 00:07:04;;;;;;;8.80;6.20;;;;;;;23.82;41.93;99978.23;117359;1184;23538;-54
2022/06/13 00:09:31;;;;;;;6.90;6.20;;;;;;;23.76;42.05;99975.41;117308;1185;22915;-53
2022/06/13 00:11:58;;;;;;;8.40;6.30;;;;;;;23.72;42.20;99975.16;117388;1182;21892;-53
2022/06/13 00:14:25;;;;;;;6.70;5.90;;;;;;;23.63;42.23;99979.55;117402;1183;21852;-53
2022/06/13 00:16:53;;;;;;;7.40;6.40;;;;;;;23.58;42.44;99975.83;117369;1182;22084;-53
2022/06/13 00:19:20;;;;;;;8.60;6.60;;;;;;;23.57;42.61;99973.07;117376;1182;22918;-52
2022/06/13 00:21:47;;;;;;;7.30;6.50;;;;;;;23.59;42.52;99971.45;117312;1182;22828;-53
2022/06/13 00:24:13;;;;;;;8.20;6.80;;;;;;;23.62;42.46;99973.45;117384;1185;21839;-53
2022/06/13 00:26:40;;;;;;;6.70;6.00;;;;;;;23.63;42.52;99970.14;117338;1184;21842;-58
2022/06/13 00:29:08;;;;;;;6.90;6.20;;;;;;;23.62;42.62;99971.98;117370;1186;21855;-54
2022/06/13 00:31:35;;;;;;;9.20;6.20;;;;;;;23.63;42.63;99970.85;117308;1184;22915;-53
2022/06/13 00:34:02;;;;;;;7.70;6.60;;;;;;;23.61;42.70;99967.33;117336;1185;22617;-53
2022/06/13 00:36:29;;;;;;;7.60;6.50;;;;;;;23.60;42.69;99969.23;117342;1182;22796;-54
2022/06/13 00:38:56;;;;;;;7.20;6.50;;;;;;;23.62;42.66;99968.89;117468;1183;21942;-58
2022/06/13 00:41:26;;;;;;;7.30;6.10;;;;;;;23.62;42.77;99969.11;117395;1183;21881;-52
2022/06/13 00:43:53;;;;;;;7.40;5.70;;;;;;;23.59;42.61;99968.23;117426;1186;21963;-55
2022/06/13 00:46:25;;;;;;;6.90;5.90;;;;;;;23.58;42.63;99968.70;117379;1185;23635;-52
2022/06/13 00:48:54;;;;;;;7.40;6.40;;;;;;;23.57;42.80;99968.60;117357;1182;22835;-58
2022/06/13 00:51:22;;;;;;;7.50;5.90;;;;;;;23.52;42.91;99968.73;117394;1184;23567;-58
2022/06/13 00:53:50;;;;;;;8.40;6.30;;;;;;;23.48;43.11;99970.83;117206;1188;22988;-52
2022/06/13 00:56:18;;;;;;;7.50;6.40;;;;;;;23.44;42.98;99975.25;117367;1186;21849;-58
2022/06/13 00:58:50;;;;;;;7.90;6.30;;;;;;;23.42;43.28;99975.38;117350;1182;22701;-58
2022/06/13 01:01:17;;;;;;;6.80;6.10;;;;;;;23.39;43.25;99976.67;117405;1185;22977;-52
2022/06/13 01:03:46;;;;;;;7.70;6.50;;;;;;;23.31;43.38;99981.71;117196;1185;23442;-58
2022/06/13 01:06:13;;;;;;;6.70;5.80;;;;;;;23.28;43.56;99983.54;117340;1185;23486;-52
2022/06/13 01:08:40;;;;;;;7.40;6.20;;;;;;;23.30;43.58;99985.18;117324;1185;21881;-58
2022/06/13 01:11:19;;;;;;;8.30;6.30;;;;;;;23.31;43.54;99991.89;117199;1182;22915;-53
2022/06/13 01:14:11;;;;;;;6.70;5.90;;;;;;;23.32;43.49;99988.63;117338;1183;22659;-52
2022/06/13 01:16:47;;;;;;;7.70;6.40;;;;;;;23.31;43.78;99983.66;117331;1185;23541;-52
2022/06/13 01:19:26;;;;;;;6.60;5.80;;;;;;;23.30;43.74;99983.77;117353;1183;21932;-52
2022/06/13 01:22:00;;;;;;;9.40;5.60;;;;;;;23.28;43.73;99981.35;117317;1184;24146;-52
2022/06/13 01:25:09;;;;;;;10.90;6.50;;;;;;;23.28;43.79;99983.15;117329;1184;21851;-53
2022/06/13 01:28:00;;;;;;;9.10;6.20;;;;;;;23.31;43.92;99981.38;116934;1185;22922;-53
2022/06/13 01:30:42;;;;;;;7.50;5.60;;;;;;;23.29;44.00;99973.24;116941;1188;24208;-52
2022/06/13 01:33:50;;;;;;;8.20;6.20;;;;;;;23.27;43.94;99976.10;117224;1186;22170;-53
2022/06/13 01:36:47;;;;;;;9.30;5.90;;;;;;;23.25;44.11;99973.37;117280;1186;22983;-53
2022/06/13 01:39:23;;;;;;;8.20;5.80;;;;;;;23.24;44.05;99972.17;118596;1185;22986;-56
2022/06/13 01:42:01;;;;;;;8.90;7.10;;;;;;;23.24;44.23;99972.21;117313;1185;23544;-50
2022/06/13 01:44:31;;;;;;;7.90;6.30;;;;;;;23.23;44.43;99971.01;117463;1183;22991;-58
2022/06/13 01:47:21;;;;;;;6.70;6.00;;;;;;;23.19;44.47;99973.42;117462;1184;21849;-53
2022/06/13 01:50:13;;;;;;;7.50;5.90;;;;;;;23.17;44.50;99974.63;117338;1182;23030;-58
2022/06/13 01:52:58;;;;;;;7.30;6.20;;;;;;;23.16;44.48;99983.48;117413;1182;22915;-58
2022/06/13 01:55:27;;;;;;;8.00;6.10;;;;;;;23.11;44.51;99984.35;117395;1182;22904;-57
2022/06/13 01:58:14;;;;;;;7.20;5.80;;;;;;;23.06;44.64;99992.26;117347;1185;24807;-52
2022/06/13 02:00:49;;;;;;;8.50;6.10;;;;;;;23.01;44.64;99991.11;117319;1186;22919;-55
2022/06/13 02:03:17;;;;;;;8.40;6.30;;;;;;;22.95;44.94;99985.46;117135;1185;22601;-52
2022/06/13 02:06:14;;;;;;;7.90;7.10;;;;;;;22.87;45.06;99989.05;117387;1182;21890;-58
2022/06/13 02:08:58;;;;;;;12.10;6.10;;;;;;;22.82;45.06;99989.25;117285;1185;23532;-53
2022/06/13 02:11:39;;;;;;;9.80;5.70;;;;;;;22.80;45.05;99991.20;117382;1184;22895;-52
2022/06/13 02:14:05;;;;;;;;;;;;;;;22.80;45.08;99991.91;117238;1182;23519;-52
2022/06/13 02:16:54;;;;;;;8.10;6.30;;;;;;;22.80;45.11;99995.81;117364;1188;21854;-59
2022/06/13 02:19:27;;;;;;;7.00;6.30;;;;;;;22.79;45.20;100001.21;117236;1186;22990;-52
2022/06/13 02:21:58;;;;;;;8.70;6.80;;;;;;;22.79;45.15;100000.92;117333;1182;22969;-52
2022/06/13 02:24:30;;;;;;;6.50;5.80;;;;;;;22.79;45.35;100005.40;117447;1186;23454;-52
2022/06/13 02:26:58;;;;;;;9.10;6.30;;;;;;;22.78;45.43;100005.09;117280;1187;21851;-57
2022/06/13 02:29:32;;;;;;;8.60;6.20;;;;;;;22.78;45.39;100010.45;117439;1185;23615;-58
2022/06/13 02:32:08;;;;;;;7.90;6.30;;;;;;;22.78;45.52;100016.91;117465;1182;23559;-52
2022/06/13 02:34:55;;;;;;;10.00;6.00;;;;;;;22.78;45.64;100019.96;117498;1180;21958;-58
2022/06/13 02:37:30;;;;;;;7.40;6.20;;;;;;;22.77;45.62;100018.56;117333;1182;24256;-58
2022/06/13 02:40:17;;;;;;;7.80;6.50;;;;;;;22.79;45.75;100020.73;117439;1186;22951;-52
2022/06/13 02:42:56;;;;;;;7.80;6.00;;;;;;;22.82;45.73;100017.68;117462;1185;23538;-57
2022/06/13 02:45:31;;;;;;;7.50;5.80;;;;;;;22.82;45.71;100016.60;117331;1183;22905;-58
2022/06/13 02:48:16;;;;;;;10.00;6.00;;;;;;;22.83;45.76;100019.39;117343;1185;23706;-58
2022/06/13 02:51:05;;;;;;;9.10;5.80;;;;;;;22.81;45.96;100018.70;117396;1186;21840;-57
2022/06/13 02:53:34;;;;;;;8.80;6.00;;;;;;;22.80;46.17;100022.68;117375;1186;22825;-57
2022/06/13 02:56:22;;;;;;;8.40;6.20;;;;;;;22.79;46.25;100022.70;117464;1183;21956;-57
2022/06/13 02:59:03;;;;;;;10.20;6.30;;;;;;;22.82;46.31;100018.56;117381;1183;22639;-58
2022/06/13 03:01:37;;;;;;;8.10;5.50;;;;;;;22.87;46.32;100018.59;117383;1185;23544;-58
2022/06/13 03:04:38;;;;;;;11.90;6.00;;;;;;;22.91;46.21;100020.08;117388;1186;21942;-58
2022/06/13 03:07:13;;;;;;;9.70;6.10;;;;;;;22.97;46.36;100027.73;117145;1184;22407;-58
2022/06/13 03:09:43;;;;;;;7.60;5.90;;;;;;;23.02;46.34;100028.27;117354;1182;21855;-58
2022/06/13 03:12:14;;;;;;;8.20;5.40;;;;;;;23.06;46.33;100029.27;117310;1188;21851;-58
2022/06/13 03:14:45;;;;;;;9.00;6.00;;;;;;;23.09;46.35;100027.60;117409;1186;21888;-58
2022/06/13 03:17:20;;;;;;;6.50;5.80;;;;;;;23.14;46.45;100025.84;117392;1183;21883;-58
2022/06/13 03:20:01;;;;;;;11.50;5.20;;;;;;;23.22;46.36;100028.89;117421;1182;21858;-57
2022/06/13 03:22:53;;;;;;;6.30;5.60;;;;;;;23.31;46.33;100028.09;117328;1182;22612;-53
2022/06/13 03:25:25;;;;;;;7.40;5.60;;;;;;;23.39;46.34;100026.65;117412;1183;22905;-54
2022/06/13 03:27:57;;;;;;;7.60;5.50;;;;;;;23.46;46.27;100024.67;117475;1184;22100;-58
2022/06/13 03:30:27;;;;;;;5.70;4.60;;;;;;;23.52;46.35;100026.97;117434;1186;21840;-53
2022/06/13 03:35:46;;;;;;;11.30;5.10;;;;;;;23.70;46.28;100035.33;117425;1182;21950;-53
2022/06/13 03:38:15;;;;;;;7.40;5.80;;;;;;;23.78;46.12;100037.23;117379;1183;23458;-57
2022/06/13 03:40:46;;;;;;;7.90;4.70;;;;;;;23.87;46.19;100037.64;117469;1186;21849;-53
2022/06/13 03:43:36;;;;;;;5.90;5.00;;;;;;;23.95;46.15;100036.70;117362;1182;23560;-57
2022/06/13 03:46:09;;;;;;;10.60;5.20;;;;;;;24.05;46.15;100038.86;117429;1185;23435;-57
2022/06/13 03:48:43;;;;;;;6.80;5.00;;;;;;;24.14;46.00;100043.64;117355;1185;21938;-54
2022/06/13 03:51:22;;;;;;;5.80;5.10;;;;;;;24.23;46.10;100041.15;117330;1187;21840;-54
2022/06/13 03:54:15;;;;;;;5.80;4.90;;;;;;;24.31;46.12;100047.35;117446;1183;23844;-54
2022/06/13 03:56:45;;;;;;;5.70;4.70;;;;;;;24.42;46.01;100046.32;117476;1186;23640;-58
2022/06/13 03:59:16;;;;;;;8.90;5.40;;;;;;;24.53;45.95;100044.65;117377;1182;24157;-55
2022/06/13 04:01:49;;;;;;;4.80;4.30;;;;;;;24.65;45.94;100043.20;117451;1186;22911;-57
2022/06/13 04:04:26;;;;;;;6.30;4.70;;;;;;;24.76;45.76;100041.80;117425;1185;22927;-55
2022/06/13 04:06:56;;;;;;;5.80;4.10;;;;;;;24.89;45.75;100039.92;117410;1183;22954;-58
2022/06/13 04:09:25;;;;;;;6.50;4.30;;;;;;;25.01;45.72;100042.09;117354;1186;23621;-54
2022/06/13 04:12:08;;;;;;;6.00;4.30;;;;;;;25.11;45.63;100046.16;117441;1183;21844;-54
2022/06/13 04:14:56;;;;;;;5.10;4.20;;;;;;;25.21;45.58;100051.42;117407;1182;23370;-53
2022/06/13 04:17:45;;;;;;;5.00;3.90;;;;;;;25.33;45.43;100060.93;117450;1182;23407;-54
2022/06/13 04:20:40;;;;;;;5.10;4.30;;;;;;;25.44;45.36;100059.33;117440;1182;23550;-53
2022/06/13 04:23:12;;;;;;;4.50;3.70;;;;;;;25.57;45.35;100059.80;117347;1185;22985;-58
2022/06/13 04:25:46;;;;;;;5.40;4.80;;;;;;;25.70;45.15;100059.28;117212;1186;23586;-57
2022/06/13 04:28:16;;;;;;;5.90;3.90;;;;;;;25.79;45.17;100059.59;117329;1185;21852;-58
2022/06/13 04:30:43;;;;;;;5.20;4.30;;;;;;;25.88;45.10;100058.85;117378;1183;22311;-53
2022/06/13 04:33:28;;;;;;;9.70;4.10;;;;;;;26.01;45.05;100059.12;117032;1188;22918;-54
2022/06/13 04:35:56;;;;;;;5.10;3.90;;;;;;;26.14;44.93;100058.36;117408;1183;23036;-58
2022/06/13 04:38:23;;;;;;;5.00;4.00;;;;;;;26.26;44.82;100057.21;117372;1182;23555;-53
2022/06/13 04:40:58;;;;;;;5.70;3.80;;;;;;;26.37;44.77;100053.23;117308;1185;22213;-55
2022/06/13 04:43:27;;;;;;;5.80;4.00;;;;;;;26.48;44.72;100055.98;117339;1184;22022;-52
2022/06/13 04:46:01;;;;;;;4.70;3.60;;;;;;;26.57;44.60;100054.86;117339;1182;21849;-52
2022/06/13 04:48:29;;;;;;;4.90;4.10;;;;;;;26.68;44.47;100060.34;117259;1186;22889;-54
2022/06/13 04:51:00;;;;;;;5.10;4.10;;;;;;;26.81;44.44;100062.91;117123;1186;22868;-54
2022/06/13 04:54:00;;;;;;;8.20;4.00;;;;;;;26.92;44.30;100064.30;117229;1185;21892;-52
2022/06/13 04:56:28;;;;;;;5.80;4.20;;;;;;;27.04;44.17;100058.63;117126;1186;24162;-57
2022/06/13 04:58:56;;;;;;;6.30;4.20;;;;;;;27.16;44.12;100062.27;117380;1183;21963;-57
2022/06/13 05:01:30;;;;;;;4.80;3.60;;;;;;;27.26;44.13;100056.69;117372;1184;22945;-56
2022/06/13 05:03:59;;;;;;;7.60;4.20;;;;;;;27.39;44.06;100056.28;117313;1185;22014;-56
2022/06/13 05:06:38;;;;;;;4.60;4.20;;;;;;;27.50;43.96;100055.70;117305;1186;23002;-56
2022/06/13 05:09:10;;;;;;;5.80;3.80;;;;;;;27.62;43.85;100053.19;117330;1185;22989;-56
2022/06/13 05:11:55;;;;;;;4.90;3.90;;;;;;;27.74;43.80;100053.63;117326;1185;22989;-56
2022/06/13 05:14:28;;;;;;;6.20;4.30;;;;;;;27.85;43.77;100053.67;117325;1185;22613;-52
2022/06/13 05:17:04;;;;;;;4.60;3.70;;;;;;;27.96;43.61;100054.15;117451;1185;21898;-54
2022/06/13 05:19:57;;;;;;;5.00;3.40;;;;;;;28.06;43.42;100057.89;117327;1184;23698;-56
2022/06/13 05:22:30;;;;;;;5.00;3.70;;;;;;;28.20;43.48;100059.41;117341;1184;22959;-56
2022/06/13 05:25:23;;;;;;;4.20;3.50;;;;;;;28.35;43.52;100060.57;117348;1182;22094;-55
2022/06/13 05:27:50;;;;;;;7.70;4.00;;;;;;;28.54;43.39;100062.35;117344;1185;22802;-53
2022/06/13 05:30:17;;;;;;;5.70;3.90;;;;;;;28.75;43.08;100055.58;117280;1185;21840;-57
2022/06/13 05:32:44;;;;;;;9.50;3.90;;;;;;;28.93;43.34;100058.98;117338;1182;24153;-54
2022/06/13 05:35:17;;;;;;;4.50;3.60;;;;;;;29.10;42.85;100051.44;117099;1187;23647;-54
2022/06/13 05:37:45;;;;;;;5.60;3.50;;;;;;;29.20;42.77;100052.77;117254;1184;22617;-57
2022/06/13 05:40:17;;;;;;;8.80;3.70;;;;;;;29.35;42.82;100052.30;117272;1183;21967;-58
2022/06/13 05:42:48;;;;;;;4.10;3.70;;;;;;;29.51;42.72;100054.21;117279;1185;23465;-56
2022/06/13 05:45:15;;;;;;;;;;;;;;;29.66;42.60;100056.51;117171;1185;22601;-54
2022/06/13 05:47:44;;;;;;;7.10;3.90;;;;;;;29.80;42.46;100054.65;117691;1182;23567;-57
2022/06/13 05:50:29;;;;;;;5.00;3.60;;;;;;;29.94;42.38;100053.09;117046;1185;21892;-58
2022/06/13 05:52:56;;;;;;;5.20;3.60;;;;;;;30.12;42.21;100055.81;117314;1185;23563;-58
2022/06/13 05:55:23;;;;;;;5.80;4.00;;;;;;;30.34;42.02;100059.81;117338;1182;22068;-53
2022/06/13 05:58:01;;;;;;;5.30;3.50;;;;;;;30.54;41.91;100058.66;117158;1185;22941;-58
2022/06/13 06:00:30;;;;;;;4.90;3.70;;;;;;;30.75;41.85;100062.39;117395;1182;23445;-57
2022/06/13 06:02:58;;;;;;;3.40;3.10;;;;;;;30.96;41.82;100065.42;117292;1185;21882;-58
2022/06/13 06:05:25;;;;;;;5.40;3.60;;;;;;;31.18;41.54;100059.36;117290;1184;24157;-58
2022/06/13 06:07:52;;;;;;;6.70;3.90;;;;;;;31.36;41.43;100057.66;117263;1185;23105;-58
2022/06/13 06:10:21;;;;;;;4.20;3.40;;;;;;;31.53;41.16;100060.41;117183;1184;21892;-54
2022/06/13 06:12:48;;;;;;;5.40;3.80;;;;;;;31.67;40.92;100061.15;117379;1184;24149;-57
2022/06/13 06:15:15;;;;;;;7.30;4.00;;;;;;;31.82;41.08;100060.10;117292;1184;22914;-57
2022/06/13 06:17:42;;;;;;;7.10;3.20;;;;;;;32.08;40.96;100055.73;117358;1184;21865;-54
2022/06/13 06:20:14;;;;;;;5.00;3.10;;;;;;;32.28;40.65;100059.55;117412;1186;24151;-55
2022/06/13 06:22:41;;;;;;;8.00;3.40;;;;;;;32.41;40.40;100059.41;117350;1185;21858;-54
2022/06/13 06:25:09;;;;;;;4.70;3.40;;;;;;;32.53;40.15;100060.25;117414;1186;22889;-57
2022/06/13 06:27:36;;;;;;;5.60;3.30;;;;;;;32.64;40.11;100058.69;117403;1186;22454;-54
2022/06/13 06:30:03;;;;;;;6.50;3.60;;;;;;;32.83;40.07;100052.86;117368;1182;22806;-57
2022/06/13 06:32:30;;;;;;;5.60;3.60;;;;;;;33.05;39.97;100053.82;117458;1185;23513;-54
2022/06/13 06:34:57;;;;;;;4.10;3.10;;;;;;;33.32;40.06;100048.46;117345;1182;22933;-57
2022/06/13 06:37:24;;;;;;;6.80;3.60;;;;;;;33.63;39.59;100040.75;117410;1186;22513;-56
2022/06/13 06:39:51;;;;;;;3.70;3.20;;;;;;;33.97;39.64;100045.73;117407;1184;23661;-57
2022/06/13 06:42:18;;;;;;;5.70;3.70;;;;;;;34.30;39.39;100050.45;117351;1186;21838;-56
2022/06/13 06:45:06;;;;;;;4.90;3.20;;;;;;;34.59;39.03;100048.66;117437;1183;22265;-55
2022/06/13 06:47:33;;;;;;;4.60;3.70;;;;;;;34.83;38.76;100048.02;117385;1184;23178;-55
2022/06/13 06:50:00;;;;;;;3.90;3.20;;;;;;;35.02;38.76;100048.94;117336;1186;22154;-58
2022/06/13 06:52:27;;;;;;;5.20;3.00;;;;;;;35.23;38.43;100047.73;117433;1182;21956;-58
2022/06/13 07:00:26;;;;;;;4.30;2.80;;;;;;;35.26;37.17;100051.97;117342;1181;23928;-54
2022/06/13 07:02:56;;;;;;;3.40;2.90;;;;;;;35.08;37.21;100055.17;117333;1185;21846;-57
2022/06/13 07:05:24;;;;;;;4.30;3.20;;;;;;;34.94;37.16;100059.84;117302;1185;22986;-57
2022/06/13 07:07:51;;;;;;;5.10;3.10;;;;;;;34.80;36.97;100057.05;117255;1186;21845;-54
2022/06/13 07:10:19;;;;;;;7.20;3.20;;;;;;;34.73;36.85;100061.63;117324;1181;22834;-55
2022/06/13 07:12:46;;;;;;;4.40;3.00;;;;;;;34.72;37.00;100056.82;117466;1186;21846;-57
2022/06/13 07:15:13;;;;;;;5.90;3.40;;;;;;;34.77;37.06;100055.09;117329;1186;21853;-55
2022/06/13 07:17:40;;;;;;;5.00;3.20;;;;;;;34.94;36.61;100057.02;117342;1182;23261;-57
2022/06/13 07:20:10;;;;;;;4.10;2.90;;;;;;;35.04;36.47;100055.30;117427;1183;23443;-54
2022/06/13 07:22:37;;;;;;;4.30;3.10;;;;;;;35.18;36.49;100054.92;117427;1186;21850;-54
2022/06/13 07:25:05;;;;;;;5.10;3.20;;;;;;;35.32;36.45;100052.85;117397;1184;22811;-53
2022/06/13 07:27:32;;;;;;;4.30;3.00;;;;;;;35.43;36.40;100047.32;117403;1182;22646;-55
2022/06/13 07:29:59;;;;;;;3.80;3.10;;;;;;;35.66;36.44;100044.51;117311;1183;22645;-53
2022/06/13 07:32:26;;;;;;;4.10;2.70;;;;;;;35.91;36.09;100053.82;117322;1182;21849;-54
2022/06/13 07:34:53;;;;;;;3.80;2.90;;;;;;;36.09;35.86;100055.08;117378;1186;21842;-54
2022/06/13 07:40:10;;;;;;;3.20;2.20;;;;;;;36.20;35.14;100056.60;117345;1184;22613;-54
2022/06/13 07:42:46;;;;;;;4.30;2.70;;;;;;;36.23;35.15;100055.89;117380;1185;21883;-54
2022/06/13 07:45:17;;;;;;;4.60;2.50;;;;;;;36.33;35.12;100058.61;117382;1186;21840;-55
2022/06/13 07:48:04;;;;;;;3.40;2.50;;;;;;;36.53;34.74;100054.30;117352;1182;21835;-55
2022/06/13 07:50:31;;;;;;;3.60;2.30;;;;;;;36.65;34.13;100053.81;117367;1186;22904;-55
2022/06/13 07:52:58;;;;;;;4.40;2.40;;;;;;;36.73;34.15;100051.64;117337;1185;21979;-55
2022/06/13 07:55:26;;;;;;;5.50;2.60;;;;;;;36.94;34.21;100049.58;117469;1182;23318;-57
2022/06/13 07:57:53;;;;;;;6.20;2.60;;;;;;;37.16;34.00;100050.73;117367;1185;21848;-57
2022/06/13 08:00:22;;;;;;;5.50;2.40;;;;;;;37.28;33.65;100053.24;117318;1182;23537;-57
2022/06/13 08:02:50;;;;;;;2.90;2.60;;;;;;;37.35;33.52;100057.45;117417;1186;22907;-54
2022/06/13 08:05:18;;;;;;;3.80;2.50;;;;;;;37.39;32.97;100056.46;117447;1183;23436;-57
2022/06/13 08:07:45;;;;;;;4.30;2.50;;;;;;;37.34;32.85;100056.14;117461;1182;21931;-56
2022/06/13 08:10:12;;;;;;;5.00;2.20;;;;;;;37.34;32.83;100055.88;117348;1183;22980;-54
2022/06/13 08:12:40;;;;;;;5.00;2.50;;;;;;;37.40;32.88;100055.08;117332;1185;21848;-56
2022/06/13 08:15:08;;;;;;;5.40;3.00;;;;;;;37.56;32.89;100053.82;117304;1183;22999;-54
2022/06/13 08:17:36;;;;;;;4.00;2.50;;;;;;;37.65;32.56;100052.16;117419;1183;21889;-53
2022/06/13 08:20:03;;;;;;;4.20;2.30;;;;;;;37.70;32.32;100053.16;117414;1182;21852;-55
2022/06/13 08:22:32;;;;;;;4.00;2.30;;;;;;;37.77;32.03;100054.99;117366;1186;21858;-55
2022/06/13 08:24:59;;;;;;;5.20;2.50;;;;;;;37.81;31.69;100058.84;117276;1189;22921;-55
2022/06/13 08:27:26;;;;;;;4.20;2.20;;;;;;;37.85;31.46;100057.48;117239;1186;22034;-54
2022/06/13 08:29:53;;;;;;;4.40;2.40;;;;;;;37.86;31.01;100055.70;117275;1182;22616;-54
2022/06/13 08:32:20;;;;;;;3.30;1.90;;;;;;;37.82;30.98;100055.30;117300;1180;23471;-55
2022/06/13 08:34:49;;;;;;;2.70;2.00;;;;;;;37.86;30.64;100055.11;117286;1185;21873;-54
2022/06/13 08:37:17;;;;;;;5.10;2.00;;;;;;;37.95;30.56;100056.80;117011;1186;24203;-55
2022/06/13 08:39:44;;;;;;;3.40;2.40;;;;;;;38.04;30.38;100055.05;117277;1185;21855;-55
2022/06/13 08:42:23;;;;;;;4.50;2.10;;;;;;;38.14;30.64;100053.92;117366;1183;22937;-55
2022/06/13 08:45:05;;;;;;;5.10;2.00;;;;;;;38.39;30.32;100049.84;117318;1183;22193;-54
2022/06/13 08:47:46;;;;;;;3.30;2.20;;;;;;;38.61;30.03;100056.40;117256;1183;21847;-55
2022/06/13 08:50:37;;;;;;;2.60;2.00;;;;;;;38.74;30.04;100056.21;117312;1182;21859;-55
2022/06/13 08:53:07;;;;;;;3.30;1.90;;;;;;;38.93;29.77;100060.15;117315;1182;21951;-55
2022/06/13 08:55:55;;;;;;;3.70;2.20;;;;;;;38.97;29.49;100058.48;117260;1185;22818;-55
2022/06/13 08:58:31;;;;;;;2.60;2.10;;;;;;;38.95;29.24;100056.69;117343;1185;21964;-54
2022/06/13 09:01:00;;;;;;;2.20;1.90;;;;;;;38.95;29.19;100054.10;117291;1185;21845;-54
2022/06/13 09:03:35;;;;;;;2.20;1.80;;;;;;;38.99;28.84;100055.59;117327;1186;21920;-56
2022/06/13 09:06:08;;;;;;;5.20;1.90;;;;;;;39.02;28.85;100057.05;118121;1186;23114;-57
2022/06/13 09:08:46;;;;;;;2.70;2.10;;;;;;;39.11;28.95;100057.63;117246;1185;21866;-55
2022/06/13 09:11:26;;;;;;;3.30;2.30;;;;;;;39.30;28.56;100058.80;117155;1186;21882;-56
2022/06/13 09:14:23;;;;;;;5.30;2.00;;;;;;;39.48;28.25;100054.98;117245;1188;23650;-56
2022/06/13 09:16:59;;;;;;;3.10;2.00;;;;;;;39.72;27.96;100059.93;117354;1185;23557;-55
2022/06/13 09:19:56;;;;;;;3.50;2.00;;;;;;;39.78;27.12;100057.06;117274;1186;21849;-55
2022/06/13 09:22:41;;;;;;;2.50;1.80;;;;;;;39.75;27.30;100063.39;117205;1185;23538;-56
2022/06/13 09:25:23;;;;;;;2.70;1.80;;;;;;;39.87;27.60;100060.38;117285;1182;22912;-55
2022/06/13 09:28:00;;;;;;;4.80;1.70;;;;;;;40.09;27.54;100055.89;117338;1184;23544;-55
2022/06/13 09:30:33;;;;;;;3.30;2.20;;;;;;;40.32;27.14;100060.40;117432;1186;22916;-55
2022/06/13 09:33:10;;;;;;;3.50;2.40;;;;;;;40.46;26.77;100053.00;117347;1185;23547;-57
2022/06/13 09:35:56;;;;;;;3.00;1.80;;;;;;;40.47;26.34;100053.52;117399;1183;22613;-57
2022/06/13 09:38:28;;;;;;;2.90;2.10;;;;;;;40.34;26.02;100053.83;117316;1186;22633;-57
2022/06/13 09:41:02;;;;;;;2.40;1.90;;;;;;;40.06;25.55;100047.09;117391;1185;21850;-56
2022/06/13 09:43:58;;;;;;;2.20;1.80;;;;;;;39.97;25.65;100048.38;117390;1186;21852;-57
2022/06/13 09:46:30;;;;;;;6.20;2.10;;;;;;;40.03;25.75;100051.52;117285;1186;22916;-55
2022/06/13 09:49:36;;;;;;;4.30;2.10;;;;;;;40.10;25.61;100056.86;117453;1186;21956;-57
2022/06/13 09:52:34;;;;;;;5.00;2.40;;;;;;;40.15;25.59;100056.54;117232;1186;22986;-57
2022/06/13 09:55:21;;;;;;;3.10;2.10;;;;;;;40.37;25.40;100052.95;117378;1186;22666;-55
2022/06/13 09:57:56;;;;;;;2.20;1.80;;;;;;;40.56;25.42;100049.19;117368;1182;24146;-57
2022/06/13 10:00:37;;;;;;;2.80;1.60;;;;;;;40.77;24.94;100052.04;117406;1186;21842;-55
2022/06/13 10:03:38;;;;;;;3.10;2.00;;;;;;;40.78;24.80;100052.34;117487;1183;22928;-55
2022/06/13 10:06:14;;;;;;;3.00;1.90;;;;;;;40.89;25.06;100048.65;117357;1186;21884;-54
2022/06/13 10:09:03;;;;;;;2.30;1.70;;;;;;;41.18;25.05;100049.02;117416;1185;23550;-57
2022/06/13 10:11:46;;;;;;;4.50;2.00;;;;;;;41.52;24.59;100043.33;117364;1186;21890;-55
2022/06/13 10:14:34;;;;;;;3.80;1.90;;;;;;;41.68;24.11;100042.63;117389;1186;21838;-55
2022/06/13 10:17:36;;;;;;;2.40;2.10;;;;;;;41.66;24.31;100048.27;117313;1184;21935;-55
2022/06/13 10:20:34;;;;;;;4.00;1.90;;;;;;;41.89;24.42;100040.39;117365;1186;21843;-55
2022/06/13 10:23:05;;;;;;;3.70;2.00;;;;;;;42.23;24.24;100041.84;117400;1184;21842;-55
2022/06/13 10:25:35;;;;;;;2.40;2.10;;;;;;;42.42;23.67;100044.65;117398;1183;22643;-56
2022/06/13 10:28:12;;;;;;;2.50;2.30;;;;;;;42.30;22.87;100041.69;117327;1182;22154;-55
2022/06/13 10:30:54;;;;;;;3.80;2.50;;;;;;;42.07;23.27;100042.19;117316;1180;23734;-55
2022/06/13 10:33:24;;;;;;;3.30;2.00;;;;;;;42.23;23.57;100036.92;117317;1186;21902;-56
2022/06/13 10:36:03;;;;;;;4.00;2.30;;;;;;;42.55;23.60;100036.83;117432;1185;23529;-54
2022/06/13 10:39:01;;;;;;;3.90;2.10;;;;;;;42.68;22.91;100041.41;117325;1185;22911;-54
2022/06/13 10:41:29;;;;;;;5.30;2.30;;;;;;;42.33;22.43;100035.61;117317;1182;21848;-54
2022/06/13 10:43:57;;;;;;;4.20;2.20;;;;;;;41.91;22.21;100029.98;117417;1184;22902;-58
2022/06/13 10:46:24;;;;;;;4.20;2.30;;;;;;;41.76;22.39;100026.77;117334;1186;21857;-56
2022/06/13 10:49:03;;;;;;;3.30;2.00;;;;;;;41.80;22.41;100027.97;117168;1188;22538;-56
2022/06/13 10:51:30;;;;;;;2.60;1.80;;;;;;;41.80;22.26;100026.88;117351;1183;23503;-57
2022/06/13 10:54:09;;;;;;;2.20;1.70;;;;;;;41.55;22.12;100027.57;117251;1185;21879;-57
2022/06/13 10:56:43;;;;;;;2.90;2.00;;;;;;;41.32;22.36;100025.78;117198;1186;22930;-58
2022/06/13 10:59:29;;;;;;;4.60;2.30;;;;;;;41.11;22.27;100027.20;117294;1183;22913;-56
2022/06/13 11:02:02;;;;;;;3.30;2.10;;;;;;;41.05;22.32;100024.26;117348;1185;23432;-59
2022/06/13 11:04:31;;;;;;;20.00;2.80;;;;;;;41.25;22.48;100017.20;117299;1183;21934;-55
2022/06/13 11:07:09;;;;;;;4.10;2.50;;;;;;;41.57;22.45;100012.09;117183;1186;23503;-55
2022/06/13 11:09:46;;;;;;;4.10;2.40;;;;;;;41.93;22.11;100008.45;117330;1182;21855;-54
2022/06/13 11:12:29;;;;;;;2.80;2.10;;;;;;;42.20;21.86;100010.41;117374;1182;22091;-55
2022/06/13 11:23:35;;;;;;;2.80;1.70;;;;;;;43.29;21.24;100002.81;117094;1186;22142;-56
2022/06/13 11:26:03;;;;;;;3.60;2.20;;;;;;;43.15;20.90;100004.77;117359;1186;23441;-57
2022/06/13 11:28:37;;;;;;;2.30;1.80;;;;;;;42.92;20.98;100005.48;117127;1185;22728;-56
2022/06/13 11:31:21;;;;;;;2.00;1.80;;;;;;;42.64;20.89;99998.05;117163;1185;22034;-57
2022/06/13 11:33:48;;;;;;;4.20;2.00;;;;;;;42.33;20.95;99999.72;117333;1185;21848;-56
2022/06/13 11:36:16;;;;;;;2.50;2.10;;;;;;;42.18;20.85;100004.89;117262;1189;21849;-56
2022/06/13 11:38:52;;;;;;;2.40;1.90;;;;;;;42.04;20.82;100000.27;117277;1183;21843;-58
2022/06/13 11:41:48;;;;;;;4.50;1.90;;;;;;;41.98;20.97;99994.73;117361;1183;23605;-57
2022/06/13 11:44:19;;;;;;;2.90;2.20;;;;;;;42.01;20.58;99995.95;117164;1186;22921;-55
2022/06/13 11:46:53;;;;;;;6.70;4.40;;;;;;;41.96;20.15;99984.52;117216;1186;23586;-57
2022/06/13 11:49:29;;;;;;;4.80;3.50;;;;;;;41.90;20.39;99983.36;117327;1186;22140;-55
2022/06/13 11:55:20;;;;;;;5.70;2.40;;;;;;;41.99;20.34;99986.42;117306;1185;23586;-57
2022/06/13 11:58:01;;;;;;;2.30;1.80;;;;;;;42.06;20.16;99977.06;117214;1183;22810;-57
2022/06/13 12:00:34;;;;;;;4.90;2.00;;;;;;;42.10;20.26;99974.27;117318;1185;23531;-57
2022/06/13 12:03:17;;;;;;;7.30;2.20;;;;;;;42.22;20.11;99970.88;117269;1180;21862;-53
2022/06/13 12:05:45;;;;;;;2.80;1.90;;;;;;;42.28;20.06;99969.17;117457;1184;21893;-57
2022/06/13 12:08:15;;;;;;;2.60;2.00;;;;;;;42.49;20.23;99968.05;117272;1186;21846;-54
2022/06/13 12:11:00;;;;;;;5.50;1.80;;;;;;;42.72;20.09;99965.92;117474;1185;21862;-57
2022/06/13 12:13:32;;;;;;;3.60;2.10;;;;;;;42.88;20.08;99960.23;117460;1186;21877;-57
2022/06/13 12:16:14;;;;;;;3.20;2.00;;;;;;;43.04;19.88;99953.73;117374;1183;22873;-54
2022/06/13 12:19:20;;;;;;;2.70;1.90;;;;;;;43.18;19.78;99954.16;117372;1185;21920;-58